createdAt,value
2023-04-11T00:01:07.570Z,48.63
2023-04-11T00:04:39.665Z,46.43
2023-04-11T00:08:11.674Z,47.42
2023-04-11T00:11:43.748Z,46.15
2023-04-11T00:15:16.278Z,45.10
2023-04-11T00:18:48.224Z,50.60
2023-04-11T00:22:20.464Z,51.15
2023-04-11T00:25:52.219Z,51.07
2023-04-11T00:29:24.299Z,51.35
2023-04-11T00:32:56.253Z,45.90
2023-04-11T00:36:28.563Z,47.83
2023-04-11T00:40:00.292Z,45.83
2023-04-11T00:43:32.391Z,44.65
2023-04-11T00:47:07.022Z,48.13
2023-04-11T00:50:41.557Z,50.77
2023-04-11T00:54:13.920Z,46.53
2023-04-11T00:57:45.672Z,46.88
2023-04-11T01:01:20.121Z,48.53
2023-04-11T01:04:52.444Z,49.33
2023-04-11T01:08:24.893Z,53.67
2023-04-11T01:11:57.954Z,50.42
2023-04-11T01:15:30.256Z,53.53
2023-04-11T01:19:02.027Z,53.20
2023-04-11T01:22:35.114Z,48.42
2023-04-11T01:26:07.048Z,51.43
2023-04-11T01:29:39.145Z,52.25
2023-04-11T01:33:11.741Z,48.42
2023-04-11T01:36:44.356Z,55.45
2023-04-11T01:40:18.136Z,51.73
2023-04-11T01:43:50.444Z,55.00
2023-04-11T01:47:22.601Z,50.38
2023-04-11T01:50:56.427Z,49.97
2023-04-11T01:54:28.122Z,51.05
2023-04-11T01:58:00.276Z,52.90
2023-04-11T02:01:32.174Z,51.77
2023-04-11T02:05:05.106Z,54.13
2023-04-11T02:08:36.758Z,51.40
2023-04-11T02:12:08.955Z,51.92
2023-04-11T02:15:40.808Z,59.30
2023-04-11T02:19:12.945Z,52.75
2023-04-11T02:22:44.656Z,51.95
2023-04-11T02:26:16.914Z,53.60
2023-04-11T02:29:48.642Z,51.17
2023-04-11T02:33:20.826Z,50.35
2023-04-11T02:36:53.192Z,51.27
2023-04-11T02:40:25.119Z,48.65
2023-04-11T02:43:56.963Z,57.00
2023-04-11T02:47:29.005Z,49.97
2023-04-11T02:51:00.692Z,53.07
2023-04-11T02:54:32.860Z,43.63
2023-04-11T02:58:04.581Z,48.38
2023-04-11T03:01:38.432Z,54.47
2023-04-11T03:05:10.627Z,46.17
2023-04-11T03:08:42.904Z,52.78
2023-04-11T03:12:14.637Z,52.88
2023-04-11T03:15:46.662Z,51.77
2023-04-11T03:19:18.538Z,46.60
2023-04-11T03:22:50.613Z,46.78
2023-04-11T03:26:27.338Z,44.77
2023-04-11T03:29:59.553Z,47.70
2023-04-11T03:33:31.374Z,52.05
2023-04-11T03:37:03.694Z,51.27
2023-04-11T03:40:35.708Z,47.90
2023-04-11T03:44:07.789Z,53.22
2023-04-11T03:47:40.596Z,48.58
2023-04-11T03:51:12.911Z,46.83
2023-04-11T03:54:47.079Z,45.30
2023-04-11T03:58:20.071Z,42.40
2023-04-11T04:01:51.796Z,42.50
2023-04-11T04:05:24.210Z,46.42
2023-04-11T04:08:55.997Z,45.55
2023-04-11T04:12:28.018Z,46.63
2023-04-11T04:16:00.702Z,41.13
2023-04-11T04:19:34.837Z,48.38
2023-04-11T04:23:06.780Z,42.58
2023-04-11T04:26:39.772Z,47.70
2023-04-11T04:30:15.894Z,46.65
2023-04-11T04:33:49.540Z,45.05
2023-04-11T04:37:25.518Z,43.63
2023-04-11T04:40:57.669Z,40.03
2023-04-11T04:44:29.786Z,43.90
2023-04-11T04:48:02.261Z,40.37
2023-04-11T04:51:40.423Z,42.75
2023-04-11T04:55:12.872Z,45.03
2023-04-11T04:58:47.296Z,46.13
2023-04-11T05:02:19.175Z,47.53
2023-04-11T05:05:51.532Z,42.90
2023-04-11T05:09:23.418Z,45.17
2023-04-11T05:12:55.536Z,40.30
2023-04-11T05:16:27.683Z,49.70
2023-04-11T05:19:59.540Z,37.28
2023-04-11T05:23:31.754Z,42.30
2023-04-11T05:27:03.624Z,42.25
2023-04-11T05:30:35.816Z,42.30
2023-04-11T05:34:08.693Z,43.95
2023-04-11T05:37:41.957Z,44.70
2023-04-11T05:41:13.964Z,42.95
2023-04-11T05:44:45.993Z,35.85
2023-04-11T05:48:19.896Z,40.50
2023-04-11T05:51:51.573Z,42.88
2023-04-11T05:55:23.708Z,40.65
2023-04-11T05:58:56.033Z,36.95
2023-04-11T06:02:28.921Z,36.03
2023-04-11T06:06:00.781Z,40.08
2023-04-11T06:09:34.091Z,39.50
2023-04-11T06:13:06.330Z,41.40
2023-04-11T06:16:40.852Z,41.83
2023-04-11T06:20:13.270Z,39.95
2023-04-11T06:23:45.046Z,37.40
2023-04-11T06:27:17.629Z,39.10
2023-04-11T06:30:49.684Z,39.28
2023-04-11T06:34:21.559Z,35.40
2023-04-11T06:37:53.590Z,35.07
2023-04-11T06:41:25.760Z,32.65
2023-04-11T06:44:57.497Z,39.17
2023-04-11T06:48:29.698Z,34.07
2023-04-11T06:52:03.476Z,36.05
2023-04-11T06:55:35.740Z,38.92
2023-04-11T06:59:08.053Z,31.85
2023-04-11T07:02:40.069Z,30.77
2023-04-11T07:06:12.302Z,37.28
2023-04-11T07:09:44.090Z,31.45
2023-04-11T07:13:16.337Z,34.30
2023-04-11T07:16:48.491Z,36.20
2023-04-11T07:20:20.757Z,30.13
2023-04-11T07:23:53.593Z,31.10
2023-04-11T07:27:26.732Z,30.23
2023-04-11T07:30:58.465Z,30.08
2023-04-11T07:34:30.877Z,30.15
2023-04-11T07:38:02.931Z,28.30
2023-04-11T07:41:37.213Z,30.37
2023-04-11T07:45:09.596Z,28.65
2023-04-11T07:48:41.903Z,25.33
2023-04-11T07:52:14.557Z,31.97
2023-04-11T07:55:46.458Z,29.10
2023-04-11T07:59:18.492Z,26.80
2023-04-11T08:02:51.971Z,27.38
2023-04-11T08:06:24.077Z,27.70
2023-04-11T08:09:56.304Z,29.65
2023-04-11T08:13:28.418Z,29.73
2023-04-11T08:17:01.020Z,25.03
2023-04-11T08:20:33.264Z,24.00
2023-04-11T08:24:05.736Z,27.33
2023-04-11T08:27:40.965Z,20.90
2023-04-11T08:31:13.702Z,23.73
2023-04-11T08:34:45.933Z,29.27
2023-04-11T08:38:17.637Z,25.35
2023-04-11T08:41:50.055Z,21.58
2023-04-11T08:45:23.642Z,22.53
2023-04-11T08:48:55.729Z,22.27
2023-04-11T08:52:28.867Z,19.63
2023-04-11T08:56:01.908Z,22.40
2023-04-11T08:59:34.263Z,20.67
2023-04-11T09:03:08.061Z,21.38
2023-04-11T09:06:42.708Z,24.75
2023-04-11T09:10:22.151Z,20.50
2023-04-11T09:14:30.162Z,22.07
2023-04-11T09:18:02.795Z,22.10
2023-04-11T09:21:48.777Z,22.45
2023-04-11T09:25:22.441Z,19.20
2023-04-11T09:28:54.771Z,23.63
2023-04-11T09:32:33.607Z,19.00
2023-04-11T09:36:19.847Z,18.00
2023-04-11T09:39:59.734Z,20.23
2023-04-11T09:43:51.556Z,24.45
2023-04-11T09:47:23.894Z,23.35
2023-04-11T09:50:58.893Z,18.30
2023-04-11T09:54:32.080Z,20.00
2023-04-11T09:58:05.819Z,19.52
2023-04-11T10:01:39.179Z,17.48
2023-04-11T10:05:13.181Z,20.33
2023-04-11T10:08:44.944Z,21.27
2023-04-11T10:12:32.743Z,23.08
2023-04-11T10:16:11.559Z,23.77
2023-04-11T10:19:44.179Z,17.70
2023-04-11T10:23:17.308Z,19.27
2023-04-11T10:26:57.706Z,20.27
2023-04-11T10:30:41.763Z,20.27
2023-04-11T10:34:14.704Z,18.43
2023-04-11T10:37:48.491Z,18.65
2023-04-11T10:41:27.149Z,19.85
2023-04-11T10:45:21.982Z,22.02
2023-04-11T10:49:04.694Z,19.80
2023-04-11T10:52:38.237Z,11.85
2023-04-11T10:56:10.070Z,19.52
2023-04-11T10:59:42.416Z,17.83
2023-04-11T11:03:35.940Z,21.40
2023-04-11T11:07:16.666Z,18.88
2023-04-11T11:10:48.709Z,15.00
2023-04-11T11:14:30.522Z,12.60
2023-04-11T11:18:04.025Z,12.48
2023-04-11T11:21:36.051Z,14.35
2023-04-11T11:25:09.162Z,14.32
2023-04-11T11:28:48.224Z,14.33
2023-04-11T11:32:28.029Z,14.13
2023-04-11T11:36:02.347Z,17.48
2023-04-11T11:39:35.431Z,14.90
2023-04-11T11:43:07.715Z,15.35
2023-04-11T11:46:40.371Z,13.10
2023-04-11T11:50:24.537Z,12.30
2023-04-11T11:54:10.028Z,13.07
2023-04-11T11:57:46.615Z,13.05
2023-04-11T12:01:18.486Z,14.82
2023-04-11T12:04:50.903Z,13.17
2023-04-11T12:08:24.466Z,10.97
2023-04-11T12:11:56.567Z,12.65
2023-04-11T12:15:28.515Z,12.70
2023-04-11T12:19:03.051Z,12.57
2023-04-11T12:22:35.767Z,14.35
2023-04-11T12:26:07.641Z,12.75
2023-04-11T12:29:39.628Z,11.17
2023-04-11T12:33:11.446Z,12.20
2023-04-11T12:36:43.431Z,13.82
2023-04-11T12:40:15.508Z,14.57
2023-04-11T12:43:47.556Z,10.00
2023-04-11T12:47:19.510Z,11.48
2023-04-11T12:50:51.364Z,12.00
2023-04-11T12:54:23.565Z,11.13
2023-04-11T12:57:55.423Z,9.10
2023-04-11T13:01:30.887Z,11.75
2023-04-11T13:05:06.425Z,10.20
2023-04-11T13:08:38.519Z,12.70
2023-04-11T13:12:10.564Z,11.50
2023-04-11T13:15:42.256Z,11.77
2023-04-11T13:19:15.067Z,8.25
2023-04-11T13:22:46.832Z,5.87
2023-04-11T13:26:19.748Z,9.93
2023-04-11T13:29:51.452Z,8.13
2023-04-11T13:33:26.510Z,9.90
2023-04-11T13:36:58.574Z,7.03
2023-04-11T13:40:30.838Z,8.27
2023-04-11T13:44:02.889Z,5.90
2023-04-11T13:47:36.914Z,5.43
2023-04-11T13:51:10.956Z,5.80
2023-04-11T13:54:43.017Z,6.40
2023-04-11T13:58:14.936Z,6.40
2023-04-11T14:01:47.044Z,4.70
2023-04-11T14:05:19.326Z,4.95
2023-04-11T14:08:52.128Z,6.77
2023-04-11T14:12:24.167Z,6.53
2023-04-11T14:16:08.251Z,6.40
2023-04-11T14:19:41.595Z,8.50
2023-04-11T14:23:16.435Z,7.53
2023-04-11T14:26:49.446Z,6.88
2023-04-11T14:30:24.668Z,5.65
2023-04-11T14:33:56.885Z,7.07
2023-04-11T14:37:28.717Z,6.03
2023-04-11T14:41:00.797Z,7.78
2023-04-11T14:44:33.733Z,6.45
2023-04-11T14:48:06.091Z,7.43
2023-04-11T14:51:38.742Z,7.80
2023-04-11T14:55:10.562Z,5.75
2023-04-11T14:58:45.004Z,5.93
2023-04-11T15:02:17.057Z,7.20
2023-04-11T15:05:49.106Z,6.00
2023-04-11T15:09:21.169Z,6.05
2023-04-11T15:12:53.192Z,6.73
2023-04-11T15:16:25.187Z,6.75
2023-04-11T15:19:57.166Z,6.18
2023-04-11T15:23:29.257Z,6.97
2023-04-11T15:27:01.456Z,5.60
2023-04-11T15:30:34.651Z,7.43
2023-04-11T15:34:06.365Z,5.45
2023-04-11T15:37:38.354Z,5.03
2023-04-11T15:41:10.073Z,7.65
2023-04-11T15:44:42.539Z,5.05
2023-04-11T15:48:14.393Z,6.50
2023-04-11T15:51:46.796Z,6.80
2023-04-11T15:55:19.024Z,6.60
2023-04-11T15:58:50.925Z,7.75
2023-04-11T16:02:23.474Z,8.03
2023-04-11T16:05:55.574Z,7.88
2023-04-11T16:09:28.657Z,8.65
2023-04-11T16:13:02.257Z,8.40
2023-04-11T16:16:34.706Z,8.37
2023-04-11T16:20:11.244Z,9.50
2023-04-11T16:23:43.791Z,7.78
2023-04-11T16:27:16.116Z,11.20
2023-04-11T16:30:47.777Z,9.40
2023-04-11T16:34:21.463Z,10.35
2023-04-11T16:37:53.658Z,10.02
2023-04-11T16:41:32.814Z,10.47
2023-04-11T16:45:05.583Z,11.23
2023-04-11T16:48:37.461Z,14.95
2023-04-11T16:52:09.482Z,8.77
2023-04-11T16:55:41.911Z,10.57
2023-04-11T16:59:13.695Z,10.52
2023-04-11T17:02:47.244Z,9.13
2023-04-11T17:10:29.943Z,8.00
2023-04-11T17:14:02.470Z,9.30
2023-04-11T17:17:34.587Z,6.87
2023-04-11T17:21:06.786Z,10.93
2023-04-11T17:24:39.033Z,9.13
2023-04-11T17:28:11.100Z,7.35
2023-04-11T17:31:43.514Z,7.43
2023-04-11T17:35:15.435Z,7.13
2023-04-11T17:38:48.581Z,6.03
2023-04-11T17:42:21.489Z,4.97
2023-04-11T17:45:54.347Z,7.20
2023-04-11T17:49:27.479Z,6.20
2023-04-11T17:52:59.566Z,6.97
2023-04-11T17:56:32.564Z,4.27
2023-04-11T18:00:19.753Z,6.10
2023-04-11T18:03:52.373Z,3.60
2023-04-11T18:07:24.777Z,5.57
2023-04-11T18:10:56.754Z,3.97
2023-04-11T18:14:28.665Z,5.07
2023-04-11T18:18:03.964Z,6.32
2023-04-11T18:21:36.056Z,7.70
2023-04-11T18:25:09.014Z,4.25
2023-04-11T18:28:41.227Z,4.00
2023-04-11T18:32:13.440Z,6.23
2023-04-11T18:35:46.990Z,4.38
2023-04-11T18:39:19.472Z,4.63
2023-04-11T18:42:53.038Z,5.43
2023-04-11T18:46:26.119Z,4.27
2023-04-11T18:49:58.063Z,6.28
2023-04-11T18:53:31.038Z,5.78
2023-04-11T18:57:03.826Z,5.13
2023-04-11T19:00:35.618Z,5.93
2023-04-11T19:04:08.370Z,6.10
2023-04-11T19:07:41.746Z,8.03
2023-04-11T19:11:13.756Z,4.68
2023-04-11T19:14:45.679Z,6.75
2023-04-11T19:18:17.766Z,5.78
2023-04-11T19:21:49.837Z,6.27
2023-04-11T19:25:22.023Z,4.50
2023-04-11T19:28:58.621Z,6.28
2023-04-11T19:32:30.492Z,5.20
2023-04-11T19:36:02.742Z,3.72
2023-04-11T19:39:38.355Z,6.50
2023-04-11T19:43:10.517Z,4.93
2023-04-11T19:46:42.697Z,5.68
2023-04-11T19:50:14.446Z,6.72
2023-04-11T19:53:48.186Z,5.97
2023-04-11T19:57:20.701Z,6.87
2023-04-11T20:00:53.047Z,9.65
2023-04-11T20:04:34.188Z,6.28
2023-04-11T20:08:53.487Z,7.30
2023-04-11T20:12:50.189Z,7.75
2023-04-11T20:16:30.202Z,4.72
2023-04-11T20:29:03.088Z,6.10
2023-04-11T20:32:33.451Z,6.28
2023-04-11T20:36:06.631Z,5.73
2023-04-11T20:39:38.846Z,5.90
2023-04-11T20:43:10.567Z,5.95
2023-04-11T20:46:42.979Z,5.77
2023-04-11T20:50:17.117Z,5.85
2023-04-11T20:53:49.087Z,5.85
2023-04-11T20:57:21.435Z,5.93
2023-04-11T21:00:54.085Z,8.80
2023-04-11T21:04:26.326Z,6.05
2023-04-11T21:08:02.022Z,5.40
2023-04-11T21:11:34.104Z,4.37
2023-04-11T21:15:06.920Z,7.68
2023-04-11T21:18:39.050Z,5.60
2023-04-11T21:22:11.926Z,4.87
2023-04-11T21:25:43.794Z,6.90
2023-04-11T21:29:15.953Z,6.80
2023-04-11T21:32:47.718Z,5.73
2023-04-11T21:36:20.559Z,7.47
2023-04-11T21:39:54.794Z,6.88
2023-04-11T21:43:27.994Z,10.18
2023-04-11T21:47:00.071Z,9.03
2023-04-11T21:50:31.956Z,8.00
2023-04-11T21:54:05.088Z,7.05
2023-04-11T21:57:37.258Z,8.60
2023-04-11T22:01:12.286Z,6.95
2023-04-11T22:05:00.962Z,6.43
2023-04-11T23:07:06.601Z,7.35
2023-04-11T23:10:39.188Z,5.95
2023-04-11T23:14:11.470Z,10.15
2023-04-11T23:17:43.708Z,7.53
2023-04-11T23:21:15.955Z,6.60
2023-04-11T23:24:48.116Z,7.60
2023-04-11T23:28:20.106Z,10.23
2023-04-11T23:31:52.259Z,10.40
2023-04-11T23:35:24.080Z,6.30
2023-04-11T23:38:56.863Z,12.03
2023-04-11T23:42:28.557Z,8.88
2023-04-11T23:46:01.050Z,6.13
2023-04-11T23:49:33.176Z,10.20
2023-04-11T23:53:04.818Z,9.20
2023-04-11T23:56:36.898Z,9.50
